Time;durP1;ratioP1;P1;durP2;ratioP2;P2;SDS_P1;SDS_P2;PMS_P1;PMS_P2;Temp;Humidity;BMP_temperature;BMP_pressure;BME280_temperature;BME280_humidity;BME280_pressure;Samples;Min_cycle;Max_cycle;Signal;HPM_P1;HPM_P2
2021/03/09 00:00:39;;;;;;;15.95;9.73;;;-2.60;95.40;;;;;;5073423;28;20124;-81
2021/03/09 00:03:08;;;;;;;10.65;8.10;;;-2.60;95.50;;;;;;5075286;28;20067;-81
2021/03/09 00:05:35;;;;;;;12.48;8.90;;;-2.60;95.60;;;;;;5074632;28;20140;-81
2021/03/09 00:08:02;;;;;;;16.17;13.32;;;-2.60;95.60;;;;;;5111203;28;20118;-81
2021/03/09 00:10:29;;;;;;;12.50;9.90;;;-2.70;95.80;;;;;;5115547;28;20051;-81
2021/03/09 00:12:56;;;;;;;13.07;9.57;;;-2.70;95.70;;;;;;5114969;28;20051;-81
2021/03/09 00:15:23;;;;;;;14.00;9.60;;;-2.70;95.60;;;;;;5115849;28;20139;-81
2021/03/09 00:17:49;;;;;;;13.70;9.77;;;-2.70;95.80;;;;;;5115114;28;20127;-81
2021/03/09 00:20:17;;;;;;;15.20;10.88;;;-2.70;95.60;;;;;;5097040;28;20044;-81
2021/03/09 00:22:43;;;;;;;14.43;12.07;;;-2.80;95.60;;;;;;5095292;28;20131;-81
2021/03/09 00:25:11;;;;;;;11.45;9.77;;;-2.80;96.20;;;;;;5090939;28;20120;-81
2021/03/09 00:27:38;;;;;;;14.65;9.55;;;-2.80;96.50;;;;;;5073883;28;20550;-77
2021/03/09 00:30:06;;;;;;;15.98;13.02;;;-2.80;96.80;;;;;;5082791;28;20039;-77
2021/03/09 00:32:37;;;;;;;15.20;11.40;;;-2.70;96.70;;;;;;5071327;28;20577;-77
2021/03/09 00:35:04;;;;;;;15.73;10.75;;;-2.70;96.50;;;;;;5071892;28;20068;-77
2021/03/09 00:37:31;;;;;;;10.13;9.10;;;-2.70;96.10;;;;;;5072325;28;20045;-77
2021/03/09 00:39:58;;;;;;;16.65;11.30;;;-2.80;93.30;;;;;;5072238;28;20053;-77
2021/03/09 00:42:25;;;;;;;19.92;12.80;;;-3.10;94.80;;;;;;5077000;28;20054;-77
2021/03/09 00:44:52;;;;;;;16.80;12.63;;;-3.20;95.90;;;;;;5072904;28;20040;-77
2021/03/09 00:47:19;;;;;;;18.05;13.20;;;-3.20;96.50;;;;;;5083789;28;20044;-77
2021/03/09 00:49:46;;;;;;;17.65;12.63;;;-3.00;96.70;;;;;;5071687;28;20053;-77
2021/03/09 00:52:15;;;;;;;19.77;13.63;;;-3.00;96.80;;;;;;5072617;28;20072;-81
2021/03/09 00:54:42;;;;;;;17.88;10.68;;;-2.90;97.20;;;;;;5074371;28;20055;-81
2021/03/09 00:57:09;;;;;;;16.33;12.13;;;-2.90;97.00;;;;;;5074360;28;20040;-82
2021/03/09 00:59:36;;;;;;;19.25;13.20;;;-2.90;97.00;;;;;;5072237;28;20075;-77
2021/03/09 01:02:04;;;;;;;20.45;12.88;;;-2.90;97.00;;;;;;5077073;28;20427;-81
2021/03/09 01:04:31;;;;;;;16.60;11.85;;;-2.90;97.10;;;;;;5072586;28;20075;-82
2021/03/09 01:06:58;;;;;;;16.80;11.20;;;-2.90;97.10;;;;;;5074360;28;20392;-82
2021/03/09 01:09:25;;;;;;;19.50;11.63;;;-2.90;97.00;;;;;;5041333;28;20047;-82
2021/03/09 01:11:51;;;;;;;16.98;13.13;;;-3.00;97.00;;;;;;5092821;28;20125;-82
2021/03/09 01:14:18;;;;;;;17.65;11.82;;;-3.00;97.10;;;;;;5073364;28;20255;-82
2021/03/09 01:16:45;;;;;;;21.65;11.90;;;-3.00;97.30;;;;;;5063947;28;20056;-82
2021/03/09 01:19:14;;;;;;;17.13;12.27;;;-3.00;97.30;;;;;;5114639;28;20488;-82
2021/03/09 01:21:40;;;;;;;20.80;13.57;;;-3.00;96.70;;;;;;5131022;27;20467;-82
2021/03/09 01:24:09;;;;;;;20.60;13.07;;;-3.10;96.90;;;;;;5108820;28;20054;-82
2021/03/09 01:26:36;;;;;;;19.80;13.35;;;-3.00;97.10;;;;;;5112229;28;20054;-77
2021/03/09 01:29:03;;;;;;;16.85;11.15;;;-3.10;96.60;;;;;;5093365;28;20059;-77
2021/03/09 01:31:30;;;;;;;17.17;10.93;;;-3.10;96.30;;;;;;5096045;28;20058;-77
2021/03/09 01:33:59;;;;;;;18.25;11.95;;;-3.20;95.90;;;;;;5090326;23;20056;-77
2021/03/09 01:36:26;;;;;;;17.13;11.82;;;-3.20;95.90;;;;;;5063247;28;20051;-82
2021/03/09 01:38:53;;;;;;;14.93;11.82;;;-3.40;96.10;;;;;;5057488;28;20060;-77
2021/03/09 01:41:20;;;;;;;16.67;11.38;;;-3.40;96.70;;;;;;5056594;28;20040;-77
2021/03/09 01:43:49;;;;;;;16.92;11.65;;;-3.40;96.60;;;;;;5060386;28;20491;-76
2021/03/09 01:46:18;;;;;;;16.73;11.68;;;-3.40;96.60;;;;;;5054823;28;20669;-77
2021/03/09 01:48:47;;;;;;;17.13;9.93;;;-3.50;96.70;;;;;;5049624;28;20547;-77
2021/03/09 01:51:19;;;;;;;19.58;12.85;;;-3.50;96.80;;;;;;5056430;28;20041;-77
2021/03/09 01:53:46;;;;;;;16.58;12.82;;;-3.50;96.70;;;;;;5055794;28;20543;-77
2021/03/09 01:56:14;;;;;;;17.08;11.90;;;-3.40;97.10;;;;;;5051678;28;20055;-76
2021/03/09 01:58:47;;;;;;;19.20;12.07;;;-3.40;97.20;;;;;;5051163;28;20550;-77
2021/03/09 02:01:15;;;;;;;23.55;15.88;;;-3.40;97.50;;;;;;5052598;28;20045;-81
2021/03/09 02:03:43;;;;;;;18.13;13.32;;;-3.40;97.20;;;;;;5052708;28;20139;-82
2021/03/09 02:06:19;;;;;;;19.25;13.32;;;-3.30;97.30;;;;;;5050037;28;20389;-82
2021/03/09 02:08:46;;;;;;;19.02;13.00;;;-3.30;97.20;;;;;;5033058;28;20048;-82
2021/03/09 02:11:36;;;;;;;23.25;14.07;;;-3.30;97.30;;;;;;5065004;28;20071;-82
2021/03/09 02:14:27;;;;;;;22.88;13.85;;;-3.30;97.20;;;;;;5027766;28;20481;-82
2021/03/09 02:17:19;;;;;;;20.92;14.18;;;-3.30;97.10;;;;;;5064872;28;20040;-82
2021/03/09 02:20:20;;;;;;;15.10;11.60;;;-3.30;96.90;;;;;;5043247;28;20044;-82
2021/03/09 02:23:06;;;;;;;18.98;12.35;;;-3.30;96.90;;;;;;5069394;28;21518;-81
2021/03/09 02:25:42;;;;;;;20.88;12.48;;;-3.30;96.90;;;;;;5047315;28;20071;-82
2021/03/09 02:28:24;;;;;;;19.80;13.70;;;-3.30;97.00;;;;;;5052419;28;20048;-81
2021/03/09 02:30:53;;;;;;;21.73;14.68;;;-3.30;96.70;;;;;;5057493;28;20787;-82
2021/03/09 02:33:25;;;;;;;23.20;14.40;;;-3.30;96.80;;;;;;5063334;28;20059;-81
2021/03/09 02:36:16;;;;;;;19.80;13.82;;;-3.40;96.70;;;;;;5063958;28;20056;-82
2021/03/09 02:39:04;;;;;;;23.83;14.48;;;-3.40;97.00;;;;;;5068317;28;20492;-81
2021/03/09 02:41:42;;;;;;;19.27;12.95;;;-3.30;97.70;;;;;;5072040;28;20151;-82
2021/03/09 02:44:11;;;;;;;16.83;12.00;;;-3.10;98.30;;;;;;5069311;28;20141;-81
2021/03/09 02:46:40;;;;;;;20.63;13.48;;;-2.90;97.90;;;;;;5053013;28;20053;-82
2021/03/09 02:49:32;;;;;;;19.83;14.73;;;-3.00;97.70;;;;;;5049968;28;20037;-76
2021/03/09 02:52:01;;;;;;;18.00;12.40;;;-3.00;97.10;;;;;;5049254;28;20393;-77
2021/03/09 02:54:29;;;;;;;19.25;13.70;;;-2.90;97.70;;;;;;5056543;28;20528;-77
2021/03/09 02:56:59;;;;;;;25.08;15.18;;;-3.00;96.50;;;;;;5056483;28;20136;-77
2021/03/09 02:59:27;;;;;;;26.67;17.60;;;-3.00;97.00;;;;;;5054936;28;20045;-77
2021/03/09 03:01:55;;;;;;;11.80;10.52;;;-3.10;96.90;;;;;;5070452;28;20036;-77
2021/03/09 03:04:23;;;;;;;27.50;14.82;;;-3.10;96.80;;;;;;5056034;28;20072;-76
2021/03/09 03:06:51;;;;;;;30.27;18.15;;;-2.90;97.60;;;;;;5071427;28;20063;-77
2021/03/09 03:09:20;;;;;;;29.10;16.15;;;-2.80;97.70;;;;;;5072633;28;20041;-76
2021/03/09 03:11:49;;;;;;;20.67;14.23;;;-2.80;97.20;;;;;;5057078;28;20432;-77
2021/03/09 03:14:18;;;;;;;21.80;12.35;;;-2.90;96.80;;;;;;5054132;28;20065;-77
2021/03/09 03:16:47;;;;;;;22.80;13.43;;;-2.90;96.40;;;;;;5066189;28;20033;-77
2021/03/09 03:19:15;;;;;;;25.25;17.15;;;-3.10;95.50;;;;;;5068043;28;20680;-76
2021/03/09 03:21:44;;;;;;;29.13;15.13;;;-3.10;96.40;;;;;;5035967;28;20076;-76
2021/03/09 03:24:14;;;;;;;19.65;13.25;;;-3.20;96.40;;;;;;5048935;28;20079;-77
2021/03/09 03:26:44;;;;;;;20.70;13.52;;;-3.10;97.30;;;;;;5049407;28;20057;-76
2021/03/09 03:29:12;;;;;;;17.83;14.70;;;-3.00;97.40;;;;;;5053271;28;20067;-77
2021/03/09 03:31:39;;;;;;;23.35;14.63;;;-2.90;97.50;;;;;;5033453;28;20136;-76
2021/03/09 03:34:06;;;;;;;26.33;15.18;;;-2.80;97.30;;;;;;5066902;28;20056;-76
2021/03/09 03:36:34;;;;;;;22.98;13.40;;;-2.70;97.30;;;;;;5064449;28;20040;-75
2021/03/09 03:39:02;;;;;;;30.23;17.08;;;-2.70;97.40;;;;;;5053789;28;20063;-75
2021/03/09 03:41:29;;;;;;;21.90;14.52;;;-2.70;97.10;;;;;;5051903;28;20045;-77
2021/03/09 03:43:56;;;;;;;18.33;12.65;;;-2.70;97.00;;;;;;5069289;28;20052;-77
2021/03/09 03:46:23;;;;;;;25.83;15.70;;;-2.70;97.10;;;;;;5055686;28;20123;-77
2021/03/09 03:48:50;;;;;;;17.67;11.18;;;-2.70;96.90;;;;;;5071932;28;20492;-77
2021/03/09 03:51:29;;;;;;;26.63;15.30;;;-2.70;96.90;;;;;;5062742;28;20045;-77
2021/03/09 03:55:00;;;;;;;36.20;16.80;;;-2.80;96.70;;;;;;5023295;28;20041;-77
2021/03/09 03:57:31;;;;;;;10.25;8.35;;;-2.80;96.80;;;;;;5010899;28;20053;-78
2021/03/09 04:00:03;;;;;;;21.27;13.50;;;-2.80;96.50;;;;;;5060235;28;20561;-78
2021/03/09 04:02:38;;;;;;;38.25;18.95;;;-2.80;96.90;;;;;;5053159;28;20501;-77
2021/03/09 04:05:08;;;;;;;30.17;17.70;;;-2.80;96.70;;;;;;5052901;28;20040;-77
2021/03/09 04:07:36;;;;;;;23.00;14.68;;;-2.90;96.00;;;;;;5044346;28;20213;-77
2021/03/09 04:10:04;;;;;;;21.48;13.45;;;-3.00;96.80;;;;;;5032686;28;20044;-77
2021/03/09 04:12:31;;;;;;;23.38;16.73;;;-3.10;96.50;;;;;;5069830;28;20051;-77
2021/03/09 04:14:59;;;;;;;25.75;15.02;;;-3.00;97.00;;;;;;5066939;28;20045;-77
2021/03/09 04:17:27;;;;;;;38.47;10.82;;;-3.00;97.20;;;;;;5069158;28;20048;-77
2021/03/09 04:19:55;;;;;;;20.05;14.88;;;-3.00;97.20;;;;;;5061008;28;20048;-78
2021/03/09 04:22:24;;;;;;;29.90;16.08;;;-3.00;97.10;;;;;;5053806;28;20389;-77
2021/03/09 04:24:52;;;;;;;29.23;18.58;;;-3.00;96.80;;;;;;5051146;28;20795;-77
2021/03/09 04:27:22;;;;;;;22.73;16.25;;;-3.20;95.30;;;;;;5053351;28;20124;-77
2021/03/09 04:29:57;;;;;;;39.25;20.52;;;-3.40;95.70;;;;;;5052644;28;20052;-77
2021/03/09 04:32:29;;;;;;;24.23;16.20;;;-3.50;95.80;;;;;;5065569;28;20078;-77
2021/03/09 04:34:56;;;;;;;26.40;18.08;;;-3.50;96.60;;;;;;5071718;28;20136;-77
2021/03/09 04:37:39;;;;;;;21.27;14.30;;;-3.40;97.20;;;;;;5062541;28;20128;-85
2021/03/09 04:40:08;;;;;;;21.65;15.80;;;-3.20;97.50;;;;;;5074675;28;20055;-85
2021/03/09 04:42:36;;;;;;;30.88;15.57;;;-3.10;97.50;;;;;;5067800;28;20082;-85
2021/03/09 04:45:04;;;;;;;26.73;16.90;;;-3.20;95.90;;;;;;5052983;28;20710;-85
2021/03/09 04:47:33;;;;;;;27.77;18.17;;;-3.30;95.80;;;;;;5057476;28;20037;-85
2021/03/09 04:50:00;;;;;;;22.35;14.73;;;-3.50;95.70;;;;;;5068362;28;20485;-85
2021/03/09 04:52:27;;;;;;;30.27;15.18;;;-3.50;96.40;;;;;;5054731;28;20060;-77
2021/03/09 04:54:56;;;;;;;30.55;15.93;;;-3.50;96.60;;;;;;5067067;28;20524;-77
2021/03/09 04:57:43;;;;;;;31.10;18.10;;;-3.50;97.20;;;;;;5065255;28;20152;-77
2021/03/09 05:00:15;;;;;;;19.88;14.45;;;-3.40;97.70;;;;;;5062695;28;20052;-77
2021/03/09 05:02:44;;;;;;;21.25;16.90;;;-3.30;97.80;;;;;;5069949;28;20044;-77
2021/03/09 05:05:14;;;;;;;24.63;13.32;;;-3.20;97.70;;;;;;5059692;28;20040;-77
2021/03/09 05:07:41;;;;;;;25.98;15.27;;;-3.10;97.80;;;;;;5066775;28;20470;-77
2021/03/09 05:10:12;;;;;;;26.83;14.65;;;-3.10;97.60;;;;;;5051612;28;20143;-77
2021/03/09 05:12:43;;;;;;;21.83;14.80;;;-3.10;97.50;;;;;;5051456;28;20572;-77
2021/03/09 05:15:11;;;;;;;26.73;17.15;;;-3.10;97.40;;;;;;5053486;28;20136;-77
2021/03/09 05:17:38;;;;;;;32.78;20.95;;;-3.00;97.30;;;;;;5052823;28;20159;-77
2021/03/09 05:20:08;;;;;;;30.92;17.30;;;-3.00;97.40;;;;;;5050208;28;20053;-77
2021/03/09 05:22:36;;;;;;;25.25;15.88;;;-2.90;97.30;;;;;;5031488;28;20120;-77
2021/03/09 05:25:05;;;;;;;29.20;16.67;;;-2.90;97.30;;;;;;5049884;28;20396;-77
2021/03/09 05:27:32;;;;;;;28.55;18.10;;;-2.90;97.10;;;;;;5055459;28;20379;-77
2021/03/09 05:29:59;;;;;;;19.55;14.25;;;-3.00;96.70;;;;;;5051154;28;20037;-77
2021/03/09 05:32:26;;;;;;;35.05;15.07;;;-3.10;96.70;;;;;;5051175;28;20041;-77
2021/03/09 05:34:53;;;;;;;25.45;17.88;;;-3.10;96.10;;;;;;5069777;28;20080;-77
2021/03/09 05:37:21;;;;;;;33.25;16.83;;;-3.20;95.90;;;;;;5053574;28;20084;-77
2021/03/09 05:39:49;;;;;;;25.60;17.05;;;-3.30;95.10;;;;;;5063377;28;20135;-77
2021/03/09 05:42:16;;;;;;;30.73;17.25;;;-3.50;95.40;;;;;;5070491;28;20044;-77
2021/03/09 05:44:46;;;;;;;31.08;18.00;;;-3.60;95.80;;;;;;5070604;28;20043;-77
2021/03/09 05:47:13;;;;;;;27.40;17.65;;;-3.70;95.10;;;;;;5067839;28;20045;-77
2021/03/09 05:49:40;;;;;;;27.02;15.25;;;-3.60;96.40;;;;;;5059853;28;20048;-77
2021/03/09 05:52:09;;;;;;;24.83;14.88;;;-3.60;96.10;;;;;;5057563;28;20045;-77
2021/03/09 05:54:37;;;;;;;26.40;17.15;;;-3.60;96.10;;;;;;5062648;28;20056;-77
2021/03/09 05:57:04;;;;;;;28.48;17.38;;;-3.60;95.60;;;;;;5050783;28;20043;-77
2021/03/09 05:59:31;;;;;;;33.15;17.40;;;-3.70;95.50;;;;;;5057280;28;20056;-77
2021/03/09 06:01:57;;;;;;;25.02;17.80;;;-3.70;95.30;;;;;;5070549;28;20050;-77
2021/03/09 06:04:25;;;;;;;25.55;14.88;;;-3.70;95.30;;;;;;5069811;28;20139;-77
2021/03/09 06:06:53;;;;;;;25.92;18.95;;;-3.70;95.20;;;;;;5061260;28;20053;-77
2021/03/09 06:09:38;;;;;;;35.55;17.77;;;-3.60;95.60;;;;;;5061399;28;20568;-77
2021/03/09 06:12:11;;;;;;;23.88;14.20;;;-3.50;95.50;;;;;;5050137;28;20434;-77
2021/03/09 06:14:56;;;;;;;22.10;13.80;;;-3.50;95.10;;;;;;5051231;28;20044;-77
2021/03/09 06:17:24;;;;;;;30.67;18.75;;;-3.30;96.50;;;;;;5068149;28;20048;-77
2021/03/09 06:20:17;;;;;;;27.20;15.52;;;-3.20;95.50;;;;;;5058700;28;20128;-77
2021/03/09 06:22:50;;;;;;;28.98;16.10;;;-3.10;95.20;;;;;;5050232;28;20049;-77
2021/03/09 06:25:21;;;;;;;23.45;15.50;;;-3.10;95.20;;;;;;5054520;28;20121;-77
2021/03/09 06:27:48;;;;;;;31.38;17.98;;;-3.00;94.90;;;;;;5064869;28;20497;-77
2021/03/09 06:30:19;;;;;;;24.63;15.27;;;-3.00;94.40;;;;;;5052677;28;21393;-77
2021/03/09 06:32:46;;;;;;;22.02;16.48;;;-2.80;94.20;;;;;;5053197;28;20049;-77
2021/03/09 06:35:40;;;;;;;27.70;15.73;;;-2.80;94.20;;;;;;5069927;28;20060;-77
2021/03/09 06:38:21;;;;;;;31.38;20.25;;;-2.60;94.10;;;;;;5065274;28;20051;-77
2021/03/09 06:41:14;;;;;;;30.05;18.95;;;-2.40;94.20;;;;;;5064548;28;20066;-77
2021/03/09 06:44:08;;;;;;;26.73;16.27;;;-2.00;93.80;;;;;;5070833;28;20048;-77
2021/03/09 06:46:47;;;;;;;26.05;13.32;;;-1.80;93.10;;;;;;5064586;28;21475;-78
2021/03/09 06:49:14;;;;;;;28.30;16.85;;;-1.40;92.30;;;;;;5030317;28;20041;-78
2021/03/09 06:51:41;;;;;;;21.45;15.13;;;-0.90;91.40;;;;;;5043864;28;20052;-78
2021/03/09 06:54:10;;;;;;;30.17;17.20;;;-0.50;90.40;;;;;;5047683;28;20470;-78
2021/03/09 06:56:42;;;;;;;23.60;15.65;;;-0.20;89.50;;;;;;5047133;28;20080;-78
2021/03/09 06:59:26;;;;;;;23.42;15.05;;;0.10;86.10;;;;;;5052293;28;20048;-78
2021/03/09 07:02:11;;;;;;;21.67;15.55;;;0.20;86.40;;;;;;5040736;28;20801;-78
2021/03/09 07:04:47;;;;;;;21.83;16.55;;;0.50;86.00;;;;;;5049859;28;20052;-79
2021/03/09 07:07:15;;;;;;;26.67;16.38;;;0.80;84.10;;;;;;5049930;28;20048;-78
2021/03/09 07:09:54;;;;;;;25.45;16.48;;;0.90;83.40;;;;;;5050321;28;20068;-78
2021/03/09 07:12:23;;;;;;;18.98;12.85;;;1.00;82.30;;;;;;5052360;28;20096;-78
2021/03/09 07:14:51;;;;;;;22.55;13.10;;;1.10;82.40;;;;;;5070801;28;20119;-78
2021/03/09 07:17:27;;;;;;;25.25;12.05;;;1.40;80.50;;;;;;5048212;28;20045;-78
2021/03/09 07:19:56;;;;;;;26.38;13.85;;;1.40;81.00;;;;;;5050546;28;20041;-80
2021/03/09 07:22:35;;;;;;;21.00;16.02;;;1.40;80.50;;;;;;5051815;28;20041;-80
2021/03/09 07:25:11;;;;;;;28.98;16.58;;;2.00;76.30;;;;;;5067331;28;20086;-81
2021/03/09 07:27:57;;;;;;;22.70;14.75;;;2.40;76.70;;;;;;5046917;28;20053;-80
2021/03/09 07:30:39;;;;;;;24.52;14.20;;;2.40;76.10;;;;;;5054005;28;21547;-80
2021/03/09 07:33:07;;;;;;;8.80;7.03;;;2.90;74.80;;;;;;5049648;28;20044;-79
2021/03/09 07:35:36;;;;;;;22.10;16.02;;;3.60;72.10;;;;;;5057391;28;20076;-78
2021/03/09 07:38:23;;;;;;;14.65;10.90;;;3.70;69.40;;;;;;5049480;28;20479;-79
2021/03/09 07:40:51;;;;;;;21.50;12.73;;;3.40;70.80;;;;;;5049436;28;20045;-78
2021/03/09 07:43:19;;;;;;;22.05;15.23;;;3.10;71.20;;;;;;5052367;28;20129;-79
2021/03/09 07:45:46;;;;;;;26.23;15.40;;;3.40;70.70;;;;;;5053815;28;20520;-79
2021/03/09 07:48:18;;;;;;;18.73;13.23;;;3.60;69.60;;;;;;5052966;28;22432;-79
2021/03/09 07:50:46;;;;;;;19.05;14.77;;;4.20;67.80;;;;;;5052492;28;20056;-85
2021/03/09 07:53:20;;;;;;;12.98;10.23;;;4.40;67.70;;;;;;5058732;28;20115;-87
2021/03/09 07:56:13;;;;;;;22.38;14.93;;;4.60;65.00;;;;;;5059171;28;20797;-86
2021/03/09 07:58:43;;;;;;;9.93;7.88;;;5.00;65.10;;;;;;5067303;28;20448;-86
2021/03/09 08:01:10;;;;;;;22.63;13.43;;;5.20;63.00;;;;;;5059720;28;20051;-90
2021/03/09 08:03:38;;;;;;;18.60;13.65;;;5.10;63.90;;;;;;5056678;28;20029;-83
2021/03/09 08:06:04;;;;;;;15.27;9.50;;;4.70;64.00;;;;;;5039985;28;20025;-84
2021/03/09 08:08:50;;;;;;;22.55;16.80;;;4.30;65.60;;;;;;5048484;28;20048;-88
2021/03/09 08:11:23;;;;;;;23.38;16.50;;;4.50;66.10;;;;;;5034815;28;20025;-84
2021/03/09 08:14:13;;;;;;;20.73;14.57;;;4.80;65.50;;;;;;5031131;28;20041;-84
2021/03/09 08:16:43;;;;;;;33.38;16.42;;;4.90;65.30;;;;;;5029596;28;20083;-83
2021/03/09 08:19:33;;;;;;;24.48;16.88;;;4.80;66.30;;;;;;5041817;28;20045;-83
2021/03/09 08:22:04;;;;;;;21.92;16.80;;;5.00;66.00;;;;;;5028734;28;20053;-84
2021/03/09 08:24:40;;;;;;;21.10;13.25;;;5.00;65.20;;;;;;5034850;28;20502;-85
2021/03/09 08:27:33;;;;;;;25.50;16.55;;;5.00;68.10;;;;;;5035923;28;20057;-89
2021/03/09 08:30:39;;;;;;;27.10;17.58;;;4.70;68.40;;;;;;5026671;28;20133;-84
2021/03/09 08:33:25;;;;;;;24.38;16.65;;;5.10;67.10;;;;;;5039329;28;20495;-82
2021/03/09 08:35:53;;;;;;;20.95;15.57;;;5.00;68.10;;;;;;5025706;28;20120;-84
2021/03/09 08:38:22;;;;;;;15.40;12.52;;;4.80;67.40;;;;;;5034180;28;20539;-85
2021/03/09 08:41:04;;;;;;;23.23;16.42;;;5.20;65.80;;;;;;5032365;28;20045;-85
2021/03/09 08:43:34;;;;;;;19.73;14.13;;;5.40;67.20;;;;;;5033233;28;20045;-84
2021/03/09 08:46:02;;;;;;;21.20;15.18;;;5.70;64.80;;;;;;5032364;28;20116;-83
2021/03/09 08:48:43;;;;;;;22.05;13.95;;;5.60;63.50;;;;;;5029782;28;20037;-84
2021/03/09 08:51:43;;;;;;;22.60;15.65;;;5.20;66.40;;;;;;5049529;28;20064;-85
2021/03/09 08:54:23;;;;;;;22.25;15.18;;;5.10;68.90;;;;;;5036926;28;20104;-88
2021/03/09 08:56:51;;;;;;;21.70;15.23;;;4.80;70.90;;;;;;5036797;28;20044;-86
2021/03/09 08:59:26;;;;;;;21.50;16.35;;;4.60;69.10;;;;;;5034341;28;20052;-84
2021/03/09 09:02:02;;;;;;;22.27;17.60;;;3.80;74.00;;;;;;5033622;28;20045;-89
2021/03/09 09:04:29;;;;;;;21.70;15.05;;;3.50;76.60;;;;;;5037798;28;20073;-88
2021/03/09 09:06:56;;;;;;;25.27;18.00;;;3.50;78.40;;;;;;5033937;28;20049;-91
2021/03/09 09:09:37;;;;;;;21.00;16.35;;;3.70;76.30;;;;;;5034155;28;20079;-89
2021/03/09 09:12:32;;;;;;;24.02;16.27;;;3.90;73.90;;;;;;5035791;28;20057;-88
2021/03/09 09:15:00;;;;;;;24.95;18.42;;;3.90;78.50;;;;;;5054513;28;20068;-87
2021/03/09 09:17:28;;;;;;;27.30;20.40;;;4.30;72.90;;;;;;5043588;28;20036;-86
2021/03/09 09:20:15;;;;;;;22.42;16.80;;;4.60;69.70;;;;;;5034764;28;20498;-89
2021/03/09 09:22:42;;;;;;;18.15;15.23;;;4.60;70.40;;;;;;5042630;28;20536;-88
2021/03/09 09:25:14;;;;;;;17.00;12.50;;;4.40;70.10;;;;;;5053435;28;20120;-87
2021/03/09 09:27:47;;;;;;;20.63;14.20;;;4.00;73.10;;;;;;5054206;28;20072;-86
2021/03/09 09:30:43;;;;;;;25.13;17.80;;;4.40;70.90;;;;;;5052667;28;20041;-84
2021/03/09 09:33:12;;;;;;;19.17;15.63;;;4.60;73.80;;;;;;5045415;28;20529;-86
2021/03/09 09:35:40;;;;;;;22.55;17.20;;;4.00;72.80;;;;;;5035572;28;20481;-86
2021/03/09 09:38:13;;;;;;;24.48;18.98;;;3.80;74.20;;;;;;5062023;28;20048;-79
2021/03/09 09:40:45;;;;;;;22.17;14.82;;;3.50;75.50;;;;;;5050131;28;20168;-77
2021/03/09 09:43:15;;;;;;;25.02;18.00;;;3.70;76.10;;;;;;5053711;28;20088;-78
2021/03/09 09:45:50;;;;;;;24.45;18.13;;;3.90;74.90;;;;;;5060256;28;20165;-79
2021/03/09 09:48:28;;;;;;;23.17;17.95;;;4.00;75.50;;;;;;5059444;28;20067;-80
2021/03/09 09:51:06;;;;;;;24.38;18.20;;;3.90;76.40;;;;;;5055146;28;20040;-79
2021/03/09 09:53:38;;;;;;;23.10;16.73;;;4.20;76.50;;;;;;5060190;28;20037;-78
2021/03/09 09:56:10;;;;;;;21.88;14.65;;;4.60;71.40;;;;;;5050884;28;20120;-78
2021/03/09 09:58:53;;;;;;;20.95;14.98;;;4.90;66.70;;;;;;5043816;28;20057;-77
2021/03/09 10:01:44;;;;;;;19.90;14.80;;;4.80;67.80;;;;;;5050968;28;20056;-77
2021/03/09 10:04:13;;;;;;;18.95;15.32;;;4.60;68.40;;;;;;5059712;28;20127;-75
2021/03/09 10:06:43;;;;;;;15.75;13.40;;;4.80;70.00;;;;;;5048181;28;20055;-75
2021/03/09 10:09:20;;;;;;;17.02;12.48;;;5.10;63.20;;;;;;5055416;28;20037;-75
2021/03/09 10:11:54;;;;;;;19.38;13.27;;;5.10;63.30;;;;;;5057033;28;20145;-75
2021/03/09 10:14:23;;;;;;;19.70;12.68;;;5.20;62.70;;;;;;5050149;28;20630;-76
2021/03/09 10:16:54;;;;;;;17.30;11.32;;;5.20;60.80;;;;;;5048776;28;20153;-76
2021/03/09 10:19:22;;;;;;;15.38;11.40;;;5.20;61.80;;;;;;5048205;28;20102;-75
2021/03/09 10:21:54;;;;;;;18.48;13.38;;;5.20;61.80;;;;;;5057097;28;20424;-76
2021/03/09 10:24:31;;;;;;;18.23;12.07;;;5.30;64.20;;;;;;5048420;28;20509;-77
2021/03/09 10:27:00;;;;;;;22.90;13.57;;;5.20;61.00;;;;;;5053375;28;20132;-76
2021/03/09 10:29:31;;;;;;;16.25;11.63;;;5.20;61.10;;;;;;5049537;28;20084;-76
2021/03/09 10:32:00;;;;;;;17.55;12.90;;;5.30;59.10;;;;;;5052823;28;20127;-76
2021/03/09 10:34:39;;;;;;;11.75;9.15;;;5.50;57.80;;;;;;5058081;28;20060;-76
2021/03/09 10:37:09;;;;;;;16.60;9.05;;;5.70;57.50;;;;;;5049604;28;20094;-78
2021/03/09 10:39:39;;;;;;;12.75;9.25;;;5.70;53.60;;;;;;5050866;28;20093;-78
2021/03/09 10:42:25;;;;;;;16.17;11.02;;;5.60;58.70;;;;;;5049562;28;20156;-78
2021/03/09 10:44:53;;;;;;;11.57;9.73;;;5.70;59.50;;;;;;5048461;28;20048;-78
2021/03/09 10:47:20;;;;;;;14.85;11.98;;;6.00;57.80;;;;;;5049230;28;20124;-78
2021/03/09 10:49:48;;;;;;;15.15;9.60;;;6.00;56.20;;;;;;5049926;28;20103;-79
2021/03/09 10:52:15;;;;;;;13.27;8.75;;;6.10;59.10;;;;;;5047835;28;20051;-78
2021/03/09 10:54:55;;;;;;;13.27;10.52;;;6.30;56.20;;;;;;5050165;28;20060;-78
2021/03/09 10:57:25;;;;;;;6.15;5.03;;;6.50;59.50;;;;;;5051813;28;20049;-79
2021/03/09 10:59:52;;;;;;;12.98;8.77;;;6.30;53.80;;;;;;5058102;28;20102;-78
2021/03/09 11:02:21;;;;;;;9.98;8.45;;;6.30;58.50;;;;;;5053822;28;20561;-78
2021/03/09 11:04:48;;;;;;;15.57;8.98;;;6.20;52.80;;;;;;5034066;28;20532;-79
2021/03/09 11:07:15;;;;;;;11.48;8.07;;;5.80;53.50;;;;;;5042483;28;20048;-79
2021/03/09 11:09:42;;;;;;;11.13;7.35;;;6.10;58.70;;;;;;5044071;28;20164;-79
2021/03/09 11:12:09;;;;;;;6.97;5.22;;;6.50;52.30;;;;;;5036737;28;20048;-78
2021/03/09 11:14:39;;;;;;;8.43;6.30;;;6.60;50.70;;;;;;5037890;28;20608;-79
2021/03/09 11:17:06;;;;;;;8.45;7.03;;;6.50;50.90;;;;;;5037501;28;20045;-79
2021/03/09 11:19:33;;;;;;;12.95;9.02;;;6.40;50.50;;;;;;5045788;28;20057;-80
2021/03/09 11:22:01;;;;;;;8.98;8.18;;;6.30;51.90;;;;;;5032418;28;20185;-78
2021/03/09 11:24:28;;;;;;;11.48;9.13;;;6.20;54.90;;;;;;5058180;28;20044;-80
2021/03/09 11:26:59;;;;;;;12.75;9.55;;;6.60;53.40;;;;;;5048769;28;20049;-79
2021/03/09 11:29:30;;;;;;;15.15;9.52;;;6.60;55.00;;;;;;5054606;28;20091;-76
2021/03/09 11:31:58;;;;;;;12.77;8.88;;;6.70;53.00;;;;;;5062066;28;20124;-75
2021/03/09 11:34:25;;;;;;;12.93;8.57;;;6.70;49.30;;;;;;5054466;28;20057;-75
2021/03/09 11:36:53;;;;;;;20.17;9.02;;;6.30;50.70;;;;;;5049735;28;20041;-74
2021/03/09 11:39:20;;;;;;;12.35;7.97;;;6.30;55.60;;;;;;5052280;28;20131;-75
2021/03/09 11:41:50;;;;;;;9.43;7.30;;;6.40;50.20;;;;;;5061167;28;20132;-75
2021/03/09 11:44:18;;;;;;;9.27;7.40;;;6.30;49.30;;;;;;5047422;28;20048;-75
2021/03/09 11:46:46;;;;;;;8.95;7.90;;;6.40;50.80;;;;;;5063164;28;20052;-76
2021/03/09 11:49:13;;;;;;;13.20;9.27;;;6.10;50.40;;;;;;5058370;28;20359;-77
2021/03/09 11:51:40;;;;;;;11.70;9.27;;;6.20;54.10;;;;;;5052925;28;20056;-74
2021/03/09 11:54:07;;;;;;;12.95;10.07;;;6.20;51.20;;;;;;5060952;28;20045;-73
2021/03/09 11:56:34;;;;;;;11.38;8.43;;;6.50;52.40;;;;;;5057077;28;20052;-73
2021/03/09 11:59:01;;;;;;;15.27;8.63;;;6.70;50.10;;;;;;5058005;28;20044;-74
2021/03/09 12:01:28;;;;;;;11.35;9.65;;;6.50;52.30;;;;;;5056318;28;20041;-73
2021/03/09 12:03:55;;;;;;;11.57;8.63;;;6.40;53.90;;;;;;5048097;28;20397;-77
2021/03/09 12:06:22;;;;;;;8.38;7.53;;;6.50;52.30;;;;;;5052227;28;20478;-77
2021/03/09 12:08:49;;;;;;;10.55;8.57;;;6.70;51.50;;;;;;5049294;28;20174;-75
2021/03/09 12:11:16;;;;;;;9.38;6.35;;;6.90;50.20;;;;;;5040011;28;20494;-77
2021/03/09 12:13:43;;;;;;;14.38;12.43;;;7.00;49.00;;;;;;5019412;28;20069;-78
2021/03/09 12:48:55;;;;;;;10.90;8.05;;;6.70;51.50;;;;;;5126401;27;20453;-75
2021/03/09 12:51:22;;;;;;;11.35;9.98;;;6.20;53.10;;;;;;5113473;28;20047;-76
2021/03/09 12:53:49;;;;;;;14.82;9.20;;;6.00;50.60;;;;;;5106154;28;20082;-76
2021/03/09 12:56:29;;;;;;;11.07;9.38;;;6.10;50.70;;;;;;5107366;27;20126;-74
2021/03/09 12:58:56;;;;;;;11.98;9.82;;;6.20;50.00;;;;;;5105043;28;20074;-76
2021/03/09 13:01:24;;;;;;;12.32;10.27;;;6.30;50.80;;;;;;5105359;27;20036;-76
2021/03/09 13:03:51;;;;;;;10.88;8.18;;;6.00;49.70;;;;;;5107458;28;20046;-75
2021/03/09 13:06:19;;;;;;;12.10;9.77;;;5.80;50.70;;;;;;5106627;28;20062;-76
2021/03/09 13:08:46;;;;;;;20.13;10.75;;;5.90;53.20;;;;;;5105914;27;20028;-75
2021/03/09 13:11:13;;;;;;;12.05;9.15;;;6.10;53.60;;;;;;5103546;28;20085;-76
2021/03/09 13:13:40;;;;;;;12.85;9.80;;;6.10;52.50;;;;;;5106541;27;20131;-75
2021/03/09 13:16:07;;;;;;;12.15;9.68;;;6.40;53.20;;;;;;5102858;27;20044;-75
2021/03/09 13:18:34;;;;;;;13.75;10.70;;;6.50;52.40;;;;;;5084854;28;20135;-77
2021/03/09 13:21:01;;;;;;;13.05;9.50;;;6.50;51.60;;;;;;5086460;28;20029;-78
2021/03/09 13:23:28;;;;;;;13.98;9.98;;;6.20;50.90;;;;;;5094457;28;20044;-78
2021/03/09 13:25:57;;;;;;;12.65;10.60;;;6.40;51.20;;;;;;5094928;28;20040;-78
2021/03/09 13:28:24;;;;;;;15.10;8.82;;;6.40;51.30;;;;;;5090046;28;20068;-78